createdAt,value
2023-01-01T00:00:52.802Z,100115.60
2023-01-01T00:03:22.091Z,100123.16
2023-01-01T00:05:51.604Z,100126.80
2023-01-01T00:08:20.945Z,100128.19
2023-01-01T00:10:50.359Z,100128.90
2023-01-01T00:13:19.728Z,100123.58
2023-01-01T00:15:49.541Z,100121.20
2023-01-01T00:18:18.715Z,100117.02
2023-01-01T00:20:47.904Z,100115.28
2023-01-01T00:23:17.651Z,100112.84
2023-01-01T00:25:46.826Z,100121.02
2023-01-01T00:28:15.941Z,100119.23
2023-01-01T00:30:45.263Z,100116.60
2023-01-01T00:33:14.446Z,100116.19
2023-01-01T00:35:43.617Z,100121.80
2023-01-01T00:38:12.789Z,100123.17
2023-01-01T00:40:41.952Z,100128.65
2023-01-01T00:43:11.049Z,100132.26
2023-01-01T00:45:40.216Z,100128.84
2023-01-01T00:48:09.540Z,100128.17
2023-01-01T00:50:38.637Z,100124.43
2023-01-01T00:53:07.833Z,100129.98
2023-01-01T00:55:37.000Z,100135.84
2023-01-01T00:58:06.145Z,100128.14
2023-01-01T01:00:36.011Z,100125.60
2023-01-01T01:03:05.749Z,100129.59
2023-01-01T01:05:37.172Z,100134.94
2023-01-01T01:08:06.455Z,100132.58
2023-01-01T01:10:35.623Z,100135.71
2023-01-01T01:13:04.754Z,100133.17
2023-01-01T01:15:33.868Z,100134.74
2023-01-01T01:18:03.053Z,100138.54
2023-01-01T01:20:32.194Z,100140.10
2023-01-01T01:23:01.350Z,100141.98
2023-01-01T01:25:30.574Z,100140.26
2023-01-01T01:27:59.717Z,100144.53
2023-01-01T01:30:30.507Z,100149.13
2023-01-01T01:32:59.751Z,100140.35
2023-01-01T01:35:29.783Z,100139.59
2023-01-01T01:37:58.910Z,100145.00
2023-01-01T01:40:28.153Z,100142.70
2023-01-01T01:42:57.301Z,100136.46
2023-01-01T01:45:32.985Z,100138.98
2023-01-01T01:48:02.773Z,100137.93
2023-01-01T01:50:33.252Z,100138.39
2023-01-01T01:53:05.828Z,100137.51
2023-01-01T01:55:36.051Z,100138.17
2023-01-01T01:58:06.607Z,100140.05
2023-01-01T02:00:35.743Z,100131.63
2023-01-01T02:03:13.893Z,100136.24
2023-01-01T02:05:43.519Z,100136.10
2023-01-01T02:08:14.778Z,100123.09
2023-01-01T02:10:43.903Z,100123.11
2023-01-01T02:13:13.203Z,100121.94
2023-01-01T02:15:48.429Z,100128.66
2023-01-01T02:18:20.187Z,100124.38
2023-01-01T02:20:51.184Z,100129.38
2023-01-01T02:23:49.031Z,100132.13
2023-01-01T02:26:38.687Z,100130.94
2023-01-01T02:29:12.272Z,100137.13
2023-01-01T02:31:44.040Z,100139.02
2023-01-01T02:34:16.425Z,100132.33
2023-01-01T02:36:49.653Z,100129.92
2023-01-01T02:39:20.387Z,100131.30
2023-01-01T02:41:51.602Z,100122.55
2023-01-01T02:44:23.770Z,100114.50
2023-01-01T02:46:52.948Z,100112.45
2023-01-01T02:49:22.088Z,100112.95
2023-01-01T02:52:01.569Z,100119.84
2023-01-01T02:54:34.343Z,100115.70
2023-01-01T02:57:06.987Z,100118.07
2023-01-01T02:59:59.818Z,100115.33
2023-01-01T03:02:32.033Z,100109.98
2023-01-01T03:05:07.132Z,100112.86
2023-01-01T03:07:41.628Z,100110.56
2023-01-01T03:10:15.266Z,100107.70
2023-01-01T03:12:46.797Z,100105.32
2023-01-01T03:15:21.138Z,100099.85
2023-01-01T03:17:54.814Z,100100.41
2023-01-01T03:20:25.264Z,100094.65
2023-01-01T03:22:56.413Z,100092.32
2023-01-01T03:25:28.181Z,100094.66
2023-01-01T03:28:00.737Z,100096.84
2023-01-01T03:30:30.730Z,100108.65
2023-01-01T03:33:03.759Z,100116.36
2023-01-01T03:35:36.464Z,100124.74
2023-01-01T03:38:08.029Z,100127.00
2023-01-01T03:40:38.786Z,100137.52
2023-01-01T03:43:11.334Z,100143.74
2023-01-01T03:45:41.689Z,100147.87
2023-01-01T03:48:11.578Z,100149.61
2023-01-01T03:50:49.048Z,100150.81
2023-01-01T03:53:24.851Z,100155.66
2023-01-01T03:55:59.192Z,100153.60
2023-01-01T03:58:32.973Z,100153.44
2023-01-01T04:01:05.243Z,100154.30
2023-01-01T04:03:35.093Z,100150.55
2023-01-01T04:06:05.168Z,100154.48
2023-01-01T04:08:35.024Z,100151.79
2023-01-01T04:11:27.077Z,100151.64
2023-01-01T04:13:56.298Z,100156.66
2023-01-01T04:16:25.444Z,100156.89
2023-01-01T04:18:54.701Z,100162.77
2023-01-01T04:21:23.806Z,100164.04
2023-01-01T04:23:52.919Z,100169.23
2023-01-01T04:26:23.617Z,100168.80
2023-01-01T04:28:52.728Z,100167.63
2023-01-01T04:31:21.909Z,100170.22
2023-01-01T04:33:54.349Z,100175.58
2023-01-01T04:36:24.327Z,100176.42
2023-01-01T04:38:53.414Z,100174.71
2023-01-01T04:41:22.625Z,100179.02
2023-01-01T04:43:51.827Z,100183.86
2023-01-01T04:46:21.731Z,100181.32
2023-01-01T04:48:50.936Z,100177.89
2023-01-01T04:51:20.797Z,100178.60
2023-01-01T04:53:49.920Z,100177.91
2023-01-01T04:56:20.458Z,100182.07
2023-01-01T04:58:50.151Z,100182.77
2023-01-01T05:01:21.127Z,100183.98
2023-01-01T05:03:50.413Z,100191.89
2023-01-01T05:06:19.638Z,100193.27
2023-01-01T05:08:49.806Z,100199.27
2023-01-01T05:11:20.470Z,100188.98
2023-01-01T05:13:50.916Z,100191.89
2023-01-01T05:16:20.967Z,100190.67
2023-01-01T05:18:50.674Z,100182.04
2023-01-01T05:21:20.949Z,100178.42
2023-01-01T05:23:50.372Z,100183.07
2023-01-01T05:26:20.593Z,100187.70
2023-01-01T05:28:50.388Z,100190.28
2023-01-01T05:31:20.316Z,100191.19
2023-01-01T05:33:49.822Z,100189.47
2023-01-01T05:36:20.476Z,100195.28
2023-01-01T05:38:49.858Z,100199.42
2023-01-01T05:41:19.904Z,100211.13
2023-01-01T05:43:49.184Z,100207.02
2023-01-01T05:46:19.584Z,100212.51
2023-01-01T05:48:48.852Z,100209.38
2023-01-01T05:51:19.307Z,100212.50
2023-01-01T05:53:48.503Z,100217.82
2023-01-01T05:56:18.038Z,100218.69
2023-01-01T05:58:47.682Z,100216.13
2023-01-01T06:01:17.996Z,100224.19
2023-01-01T06:03:49.094Z,100226.96
2023-01-01T06:06:19.939Z,100227.30
2023-01-01T06:08:52.830Z,100237.95
2023-01-01T06:11:22.090Z,100235.38
2023-01-01T06:13:52.449Z,100235.42
2023-01-01T06:16:21.667Z,100241.80
2023-01-01T06:18:50.822Z,100244.44
2023-01-01T06:21:21.171Z,100239.33
2023-01-01T06:23:50.631Z,100243.65
2023-01-01T06:26:20.744Z,100243.17
2023-01-01T06:28:50.533Z,100248.70
2023-01-01T06:31:21.059Z,100251.48
2023-01-01T06:33:51.484Z,100253.04
2023-01-01T06:36:21.640Z,100258.92
2023-01-01T06:38:53.661Z,100261.20
2023-01-01T06:41:23.555Z,100261.23
2023-01-01T06:43:52.715Z,100263.97
2023-01-01T06:46:23.045Z,100262.63
2023-01-01T06:48:54.569Z,100258.01
2023-01-01T06:51:24.737Z,100258.19
2023-01-01T06:53:54.308Z,100261.82
2023-01-01T06:56:23.481Z,100264.72
2023-01-01T06:58:52.810Z,100271.24
2023-01-01T07:01:23.123Z,100273.11
2023-01-01T07:03:53.412Z,100279.12
2023-01-01T07:06:22.852Z,100279.58
2023-01-01T07:08:52.221Z,100284.69
2023-01-01T07:11:21.552Z,100285.67
2023-01-01T07:13:50.691Z,100289.05
2023-01-01T07:16:19.883Z,100286.44
2023-01-01T07:18:50.777Z,100285.98
2023-01-01T07:21:30.672Z,100288.71
2023-01-01T07:24:01.876Z,100289.38
2023-01-01T07:26:31.718Z,100298.11
2023-01-01T07:29:08.470Z,100299.67
2023-01-01T07:31:38.644Z,100308.13
2023-01-01T07:34:08.552Z,100310.73
2023-01-01T07:36:38.439Z,100314.23
2023-01-01T07:39:07.828Z,100319.84
2023-01-01T07:41:37.216Z,100319.77
2023-01-01T07:44:06.599Z,100318.42
2023-01-01T07:46:37.213Z,100318.92
2023-01-01T07:49:06.566Z,100322.58
2023-01-01T07:51:35.952Z,100321.46
2023-01-01T07:54:07.359Z,100324.23
2023-01-01T07:56:37.312Z,100322.77
2023-01-01T07:59:06.518Z,100323.78
2023-01-01T08:01:38.275Z,100327.59
2023-01-01T08:04:07.720Z,100336.60
2023-01-01T08:06:38.566Z,100333.92
2023-01-01T08:09:09.151Z,100339.73
2023-01-01T08:11:38.317Z,100346.89
2023-01-01T08:14:07.405Z,100354.17
2023-01-01T08:16:36.581Z,100356.51
2023-01-01T08:19:06.008Z,100362.84
2023-01-01T08:21:35.148Z,100357.21
2023-01-01T08:24:04.796Z,100358.13
2023-01-01T08:26:36.699Z,100356.27
2023-01-01T08:29:06.868Z,100360.65
2023-01-01T08:31:36.972Z,100362.42
2023-01-01T08:34:06.152Z,100364.56
2023-01-01T08:36:35.384Z,100368.00
2023-01-01T08:39:04.749Z,100366.57
2023-01-01T08:41:33.865Z,100366.58
2023-01-01T08:44:03.090Z,100371.61
2023-01-01T08:46:32.360Z,100373.54
2023-01-01T08:49:01.596Z,100376.95
2023-01-01T08:51:32.203Z,100379.17
2023-01-01T08:54:01.304Z,100379.95
2023-01-01T08:56:30.418Z,100384.75
2023-01-01T08:59:04.288Z,100386.02
2023-01-01T09:01:34.008Z,100386.09
2023-01-01T09:04:03.380Z,100388.97
2023-01-01T09:06:32.584Z,100390.44
2023-01-01T09:09:01.718Z,100396.32
2023-01-01T09:11:30.844Z,100395.95
2023-01-01T09:14:00.057Z,100393.32
2023-01-01T09:16:29.290Z,100394.84
2023-01-01T09:18:58.410Z,100393.34
2023-01-01T09:21:27.554Z,100389.05
2023-01-01T09:23:56.710Z,100384.95
2023-01-01T09:26:25.815Z,100390.58
2023-01-01T09:28:55.116Z,100391.94
2023-01-01T09:31:24.290Z,100387.14
2023-01-01T09:33:53.873Z,100388.80
2023-01-01T09:36:29.896Z,100387.38
2023-01-01T09:38:59.680Z,100385.42
2023-01-01T09:41:36.609Z,100384.19
2023-01-01T09:44:10.992Z,100388.59
2023-01-01T09:46:40.528Z,100385.35
2023-01-01T09:49:13.703Z,100382.02
2023-01-01T09:51:51.063Z,100386.10
2023-01-01T09:54:27.585Z,100387.88
2023-01-01T09:56:59.192Z,100384.80
2023-01-01T09:59:28.597Z,100393.36
2023-01-01T10:02:02.450Z,100392.27
2023-01-01T10:04:39.591Z,100391.96
2023-01-01T10:07:13.374Z,100388.23
2023-01-01T10:09:48.290Z,100387.05
2023-01-01T10:12:24.006Z,100383.95
2023-01-01T10:15:00.647Z,100385.43
2023-01-01T10:17:33.761Z,100377.13
2023-01-01T10:20:04.303Z,100377.14
2023-01-01T10:22:37.840Z,100376.53
2023-01-01T10:25:10.122Z,100379.88
2023-01-01T10:27:42.639Z,100372.99
2023-01-01T10:30:16.338Z,100362.85
2023-01-01T10:32:48.314Z,100363.14
2023-01-01T10:35:18.906Z,100367.11
2023-01-01T10:37:49.929Z,100361.83
2023-01-01T10:40:20.709Z,100363.66
2023-01-01T10:42:50.862Z,100357.12
2023-01-01T10:45:31.892Z,100359.80
2023-01-01T10:48:14.993Z,100357.81
2023-01-01T10:50:46.371Z,100351.26
2023-01-01T10:53:22.887Z,100353.27
2023-01-01T10:55:52.712Z,100350.52
2023-01-01T10:58:35.098Z,100349.11
2023-01-01T11:01:05.464Z,100345.55
2023-01-01T11:03:34.990Z,100338.45
2023-01-01T11:06:06.039Z,100339.27
2023-01-01T11:08:37.225Z,100339.58
2023-01-01T11:11:06.860Z,100345.32
2023-01-01T11:13:36.125Z,100345.63
2023-01-01T11:16:12.396Z,100347.56
2023-01-01T11:18:41.843Z,100340.30
2023-01-01T11:21:11.293Z,100341.29
2023-01-01T11:23:40.880Z,100340.45
2023-01-01T11:26:27.044Z,100335.80
2023-01-01T11:29:03.421Z,100336.20
2023-01-01T11:31:36.624Z,100332.31
2023-01-01T11:34:25.753Z,100338.62
2023-01-01T11:37:07.017Z,100339.23
2023-01-01T11:39:37.524Z,100332.83
2023-01-01T11:42:08.526Z,100335.05
2023-01-01T11:44:44.614Z,100338.91
2023-01-01T11:47:23.109Z,100334.36
2023-01-01T11:49:56.454Z,100331.86
2023-01-01T11:52:34.879Z,100334.24
2023-01-01T11:55:10.966Z,100337.55
2023-01-01T11:57:47.648Z,100332.12
2023-01-01T12:00:17.679Z,100336.23
2023-01-01T12:02:54.544Z,100343.58
2023-01-01T12:05:25.544Z,100347.89
2023-01-01T12:07:57.541Z,100349.99
2023-01-01T12:10:29.221Z,100355.10
2023-01-01T12:13:02.981Z,100359.52
2023-01-01T12:15:36.675Z,100362.75
2023-01-01T12:18:12.410Z,100365.63
2023-01-01T12:20:45.313Z,100355.27
2023-01-01T12:23:16.607Z,100352.66
2023-01-01T12:25:47.857Z,100347.96
2023-01-01T12:28:24.692Z,100344.64
2023-01-01T12:30:58.858Z,100342.93
2023-01-01T12:33:37.313Z,100345.05
2023-01-01T12:36:16.751Z,100347.59
2023-01-01T12:39:01.882Z,100349.16
2023-01-01T12:41:34.855Z,100351.92
2023-01-01T12:44:08.999Z,100357.52
2023-01-01T12:46:48.132Z,100360.31
2023-01-01T12:49:32.815Z,100357.19
2023-01-01T12:52:10.763Z,100357.53
2023-01-01T12:54:56.309Z,100362.50
2023-01-01T12:57:30.911Z,100362.33
2023-01-01T13:00:03.265Z,100360.55
2023-01-01T13:02:35.909Z,100359.52
2023-01-01T13:05:09.133Z,100366.77
2023-01-01T13:07:40.871Z,100368.02
2023-01-01T13:10:14.136Z,100369.70
2023-01-01T13:12:44.774Z,100374.70
2023-01-01T13:15:32.580Z,100372.92
2023-01-01T13:18:03.167Z,100378.60
2023-01-01T13:20:32.718Z,100376.83
2023-01-01T13:23:02.687Z,100373.23
2023-01-01T13:25:37.172Z,100368.27
2023-01-01T13:28:16.342Z,100368.16
2023-01-01T13:30:55.335Z,100368.98
2023-01-01T13:33:27.454Z,100361.77
2023-01-01T13:36:15.858Z,100366.27
2023-01-01T13:38:48.328Z,100366.93
2023-01-01T13:41:35.593Z,100373.65
2023-01-01T13:44:18.866Z,100380.77
2023-01-01T13:46:56.597Z,100392.36
2023-01-01T13:49:34.559Z,100401.59
2023-01-01T13:52:11.087Z,100399.86
2023-01-01T13:54:56.360Z,100397.98
2023-01-01T13:57:43.743Z,100403.23
2023-01-01T14:00:20.103Z,100407.27
2023-01-01T14:02:53.505Z,100416.71
2023-01-01T14:05:25.962Z,100425.91
2023-01-01T14:07:56.518Z,100439.23
2023-01-01T14:10:30.775Z,100444.72
2023-01-01T14:13:15.053Z,100446.79
2023-01-01T14:15:51.194Z,100459.21
2023-01-01T14:18:23.580Z,100464.21
2023-01-01T14:20:54.476Z,100464.86
2023-01-01T14:23:27.115Z,100468.48
2023-01-01T14:25:56.473Z,100475.16
2023-01-01T14:28:27.865Z,100486.48
2023-01-01T14:30:57.439Z,100484.38
2023-01-01T14:33:28.039Z,100488.79
2023-01-01T14:35:58.299Z,100486.15
2023-01-01T14:38:29.124Z,100482.11
2023-01-01T14:41:10.219Z,100483.25
2023-01-01T14:43:40.573Z,100491.46
2023-01-01T14:46:14.877Z,100494.32
2023-01-01T14:48:45.807Z,100497.33
2023-01-01T14:51:17.062Z,100501.03
2023-01-01T14:53:47.583Z,100506.45
2023-01-01T14:56:23.881Z,100510.88
2023-01-01T14:58:54.596Z,100507.68
2023-01-01T15:01:25.873Z,100504.48
2023-01-01T15:04:02.309Z,100496.63
2023-01-01T15:06:32.135Z,100492.61
2023-01-01T15:09:01.281Z,100487.52
2023-01-01T15:11:30.429Z,100478.30
2023-01-01T15:14:01.423Z,100476.13
2023-01-01T15:16:39.702Z,100484.79
2023-01-01T15:19:19.505Z,100488.17
2023-01-01T15:21:48.895Z,100478.12
2023-01-01T15:24:22.227Z,100474.41
2023-01-01T15:26:53.344Z,100476.73
2023-01-01T15:29:28.623Z,100475.29
2023-01-01T15:31:59.670Z,100478.64
2023-01-01T15:34:30.875Z,100485.63
2023-01-01T15:37:08.939Z,100491.39
2023-01-01T15:39:48.032Z,100496.48
2023-01-01T15:42:32.696Z,100511.05
2023-01-01T15:45:18.479Z,100514.71
2023-01-01T15:47:48.665Z,100523.05
2023-01-01T15:50:23.206Z,100523.63
2023-01-01T15:52:55.905Z,100524.91
2023-01-01T15:55:27.298Z,100534.09
2023-01-01T15:57:56.421Z,100533.66
2023-01-01T16:00:27.257Z,100541.99
2023-01-01T16:02:59.854Z,100552.96
2023-01-01T16:05:29.358Z,100553.56
2023-01-01T16:08:02.933Z,100555.02
2023-01-01T16:10:32.825Z,100557.55
2023-01-01T16:13:01.987Z,100558.50
2023-01-01T16:15:31.326Z,100550.88
2023-01-01T16:18:00.508Z,100548.73
2023-01-01T16:20:29.698Z,100548.86
2023-01-01T16:22:58.937Z,100554.79
2023-01-01T16:25:29.483Z,100558.66
2023-01-01T16:27:58.628Z,100562.64
2023-01-01T16:30:27.857Z,100565.30
2023-01-01T16:32:57.021Z,100578.13
2023-01-01T16:35:26.164Z,100583.88
2023-01-01T16:37:55.337Z,100594.09
2023-01-01T16:40:24.456Z,100601.91
2023-01-01T16:42:53.634Z,100606.60
2023-01-01T16:45:22.888Z,100612.50
2023-01-01T16:47:52.132Z,100614.83
2023-01-01T16:50:21.807Z,100618.34
2023-01-01T16:52:50.987Z,100611.55
2023-01-01T16:55:20.132Z,100614.38
2023-01-01T16:57:49.691Z,100620.44
2023-01-01T17:00:19.132Z,100621.73
2023-01-01T17:02:49.807Z,100620.59
2023-01-01T17:05:19.104Z,100619.98
2023-01-01T17:07:48.241Z,100619.20
2023-01-01T17:10:17.572Z,100615.29
2023-01-01T17:12:46.677Z,100608.48
2023-01-01T17:15:16.009Z,100606.86
2023-01-01T17:17:45.159Z,100600.39
2023-01-01T17:20:14.386Z,100605.63
2023-01-01T17:22:43.494Z,100604.62
2023-01-01T17:25:12.698Z,100605.20
2023-01-01T17:27:41.906Z,100603.89
2023-01-01T17:30:12.403Z,100614.42
2023-01-01T17:32:41.926Z,100620.65
2023-01-01T17:35:11.760Z,100622.60
2023-01-01T17:37:40.924Z,100617.85
2023-01-01T17:40:11.009Z,100619.63
2023-01-01T17:42:40.133Z,100621.57
2023-01-01T17:45:10.726Z,100632.25
2023-01-01T17:47:39.891Z,100638.99
2023-01-01T17:50:09.961Z,100646.27
2023-01-01T17:52:39.611Z,100642.35
2023-01-01T17:55:10.294Z,100638.27
2023-01-01T17:57:43.025Z,100651.04
2023-01-01T18:00:14.668Z,100654.17
2023-01-01T18:02:46.434Z,100651.64
2023-01-01T18:05:15.821Z,100650.67
2023-01-01T18:07:45.867Z,100657.24
2023-01-01T18:10:15.086Z,100665.19
2023-01-01T18:13:00.920Z,100666.23
2023-01-01T18:15:35.895Z,100673.87
2023-01-01T18:18:07.047Z,100678.71
2023-01-01T18:20:37.803Z,100689.02
2023-01-01T18:23:08.690Z,100690.59
2023-01-01T18:25:40.190Z,100692.66
2023-01-01T18:28:12.902Z,100693.02
2023-01-01T18:30:43.582Z,100701.10
2023-01-01T18:33:16.355Z,100705.93
2023-01-01T18:35:47.155Z,100710.57
2023-01-01T18:38:18.792Z,100711.27
2023-01-01T18:41:00.534Z,100709.55
2023-01-01T18:43:31.220Z,100707.34
2023-01-01T18:46:02.482Z,100703.76
2023-01-01T18:48:33.332Z,100696.21
2023-01-01T18:51:10.955Z,100700.15
2023-01-01T18:53:47.864Z,100701.73
2023-01-01T18:56:22.188Z,100705.89
2023-01-01T18:58:56.078Z,100712.79
2023-01-01T19:01:27.286Z,100713.50
2023-01-01T19:04:01.988Z,100716.27
2023-01-01T19:06:37.455Z,100725.38
2023-01-01T19:09:21.129Z,100731.42
2023-01-01T19:11:53.466Z,100738.13
2023-01-01T19:14:27.820Z,100739.70
2023-01-01T19:17:06.137Z,100745.73
2023-01-01T19:19:42.315Z,100751.06
2023-01-01T19:22:25.460Z,100755.88
2023-01-01T19:24:56.460Z,100760.55
2023-01-01T19:27:33.546Z,100764.86
2023-01-01T19:30:20.924Z,100769.33
2023-01-01T19:32:51.661Z,100770.73
2023-01-01T19:35:26.767Z,100778.12
2023-01-01T19:38:10.615Z,100784.47
2023-01-01T19:40:45.293Z,100783.45
2023-01-01T19:43:18.396Z,100790.15
2023-01-01T19:45:55.937Z,100789.29
2023-01-01T19:48:29.360Z,100789.98
2023-01-01T19:51:09.892Z,100797.00
2023-01-01T19:53:40.924Z,100795.27
2023-01-01T19:56:12.288Z,100801.09
2023-01-01T19:58:43.277Z,100806.39
2023-01-01T20:01:17.901Z,100805.16
2023-01-01T20:03:54.589Z,100802.95
2023-01-01T20:06:42.533Z,100805.36
2023-01-01T20:09:13.751Z,100807.60
2023-01-01T20:11:50.664Z,100810.20
2023-01-01T20:14:30.598Z,100809.19
2023-01-01T20:17:02.804Z,100812.31
2023-01-01T20:19:35.599Z,100808.19
2023-01-01T20:22:16.657Z,100811.64
2023-01-01T20:24:58.739Z,100811.86
2023-01-01T20:27:39.748Z,100805.71
2023-01-01T20:30:14.960Z,100806.61
2023-01-01T20:32:56.130Z,100807.48
2023-01-01T20:35:49.857Z,100808.38
2023-01-01T20:38:24.405Z,100804.98
2023-01-01T20:41:20.137Z,100799.87
2023-01-01T20:43:58.084Z,100804.16
2023-01-01T20:46:32.678Z,100805.39
2023-01-01T20:49:08.608Z,100805.73
2023-01-01T20:51:39.533Z,100812.77
2023-01-01T20:54:12.436Z,100812.23
2023-01-01T20:56:47.857Z,100815.83
2023-01-01T20:59:35.504Z,100812.91
2023-01-01T21:02:09.236Z,100813.10
2023-01-01T21:04:43.631Z,100814.98
2023-01-01T21:07:30.988Z,100819.45
2023-01-01T21:10:02.632Z,100820.15
2023-01-01T21:12:34.545Z,100821.17
2023-01-01T21:15:15.285Z,100825.30
2023-01-01T21:17:46.473Z,100830.11
2023-01-01T21:20:17.800Z,100830.98
2023-01-01T21:22:49.319Z,100832.20
2023-01-01T21:25:50.498Z,100835.46
2023-01-01T21:28:18.990Z,100834.63
2023-01-01T21:30:53.620Z,100833.95
2023-01-01T21:33:29.107Z,100838.42
2023-01-01T21:36:03.078Z,100839.63
2023-01-01T21:38:34.375Z,100837.58
2023-01-01T21:41:13.902Z,100835.36
2023-01-01T21:43:54.002Z,100839.98
2023-01-01T21:46:40.976Z,100846.68
2023-01-01T21:49:19.624Z,100847.03
2023-01-01T21:51:55.166Z,100852.34
2023-01-01T21:54:31.910Z,100846.52
2023-01-01T21:57:13.687Z,100848.58
2023-01-01T21:59:45.968Z,100849.77
2023-01-01T22:02:34.978Z,100846.02
2023-01-01T22:05:29.477Z,100843.61
2023-01-01T22:08:19.312Z,100843.45
2023-01-01T22:10:50.047Z,100835.92
2023-01-01T22:13:23.431Z,100837.64
2023-01-01T22:15:54.135Z,100838.84
2023-01-01T22:18:30.968Z,100842.28
2023-01-01T22:21:02.883Z,100843.15
2023-01-01T22:23:39.451Z,100848.15
2023-01-01T22:26:19.062Z,100846.95
2023-01-01T22:28:52.596Z,100846.61
2023-01-01T22:31:25.873Z,100843.18
2023-01-01T22:34:00.396Z,100841.31
2023-01-01T22:36:34.431Z,100844.58
2023-01-01T22:39:13.399Z,100837.90
2023-01-01T22:41:44.790Z,100839.44
2023-01-01T22:44:16.742Z,100841.17
2023-01-01T22:46:47.598Z,100842.55
2023-01-01T22:49:24.162Z,100843.59
2023-01-01T22:51:56.332Z,100843.42
2023-01-01T22:54:27.011Z,100851.65
2023-01-01T22:56:57.768Z,100853.19
2023-01-01T22:59:28.406Z,100853.34
2023-01-01T23:02:00.414Z,100852.65
2023-01-01T23:04:31.098Z,100855.73
2023-01-01T23:07:02.727Z,100858.29
2023-01-01T23:09:34.341Z,100855.05
2023-01-01T23:12:05.119Z,100857.27
2023-01-01T23:14:53.467Z,100855.77
2023-01-01T23:17:24.173Z,100856.14
2023-01-01T23:19:58.363Z,100852.73
2023-01-01T23:22:32.271Z,100852.25
2023-01-01T23:25:04.763Z,100849.88
2023-01-01T23:27:35.965Z,100852.48
2023-01-01T23:30:08.108Z,100851.66
2023-01-01T23:32:40.222Z,100854.59
2023-01-01T23:35:12.079Z,100848.45
2023-01-01T23:37:43.565Z,100849.86
2023-01-01T23:40:15.169Z,100843.38
2023-01-01T23:42:45.920Z,100844.41
2023-01-01T23:45:16.727Z,100847.70
2023-01-01T23:47:47.676Z,100855.60
2023-01-01T23:50:18.702Z,100858.37
2023-01-01T23:52:49.449Z,100858.55
2023-01-01T23:55:20.213Z,100854.27
2023-01-01T23:57:52.234Z,100844.50
